createdAt,value
2018-11-14T00:00:55.614Z,10.09
2018-11-14T00:01:55.591Z,10.20
2018-11-14T00:02:55.555Z,10.18
2018-11-14T00:03:55.523Z,10.13
2018-11-14T00:04:55.500Z,10.11
2018-11-14T00:05:55.465Z,10.20
2018-11-14T00:06:55.435Z,10.14
2018-11-14T00:07:55.405Z,10.25
2018-11-14T00:08:55.376Z,10.24
2018-11-14T00:09:55.348Z,10.26
2018-11-14T00:10:55.326Z,10.31
2018-11-14T00:11:55.293Z,10.28
2018-11-14T00:12:55.260Z,10.39
2018-11-14T00:13:55.230Z,10.42
2018-11-14T00:14:55.201Z,10.36
2018-11-14T00:15:55.194Z,10.32
2018-11-14T00:16:55.141Z,10.29
2018-11-14T00:17:55.115Z,10.31
2018-11-14T00:18:55.083Z,10.22
2018-11-14T00:19:55.278Z,10.25
2018-11-14T00:20:55.025Z,10.18
2018-11-14T00:21:54.995Z,10.32
2018-11-14T00:22:54.989Z,10.34
2018-11-14T00:23:55.387Z,10.28
2018-11-14T00:24:55.052Z,10.26
2018-11-14T00:25:54.879Z,10.28
2018-11-14T00:26:54.849Z,10.17
2018-11-14T00:27:54.856Z,10.14
2018-11-14T00:28:54.790Z,10.10
2018-11-14T00:29:54.764Z,10.24
2018-11-14T00:30:54.732Z,10.16
2018-11-14T00:31:54.703Z,10.14
2018-11-14T00:32:54.696Z,10.17
2018-11-14T00:33:54.652Z,10.22
2018-11-14T00:34:54.725Z,10.13
2018-11-14T00:35:54.586Z,10.09
2018-11-14T00:36:54.556Z,10.04
2018-11-14T00:37:54.526Z,10.10
2018-11-14T00:38:54.500Z,10.14
2018-11-14T00:39:54.469Z,10.11
2018-11-14T00:40:54.438Z,10.07
2018-11-14T00:41:54.413Z,10.06
2018-11-14T00:42:54.382Z,10.11
2018-11-14T00:43:54.350Z,10.04
2018-11-14T00:44:54.322Z,10.02
2018-11-14T00:45:54.294Z,10.07
2018-11-14T00:46:54.263Z,10.09
2018-11-14T00:47:54.233Z,10.01
2018-11-14T00:48:54.204Z,10.01
2018-11-14T00:49:54.174Z,10.01
2018-11-14T00:50:54.147Z,9.98
2018-11-14T00:51:54.116Z,9.99
2018-11-14T00:52:54.087Z,9.92
2018-11-14T00:53:54.057Z,10.01
2018-11-14T00:54:54.028Z,10.02
2018-11-14T00:55:54.035Z,10.04
2018-11-14T00:56:53.970Z,9.96
2018-11-14T00:57:53.939Z,9.95
2018-11-14T00:58:53.911Z,9.99
2018-11-14T00:59:53.938Z,9.98
2018-11-14T01:00:53.860Z,9.98
2018-11-14T01:01:53.822Z,9.99
2018-11-14T01:02:53.792Z,9.96
2018-11-14T01:03:53.786Z,9.96
2018-11-14T01:04:53.733Z,9.93
2018-11-14T01:05:53.705Z,9.96
2018-11-14T01:06:53.679Z,9.99
2018-11-14T01:07:53.645Z,9.92
2018-11-14T01:08:53.615Z,9.96
2018-11-14T01:09:54.101Z,9.85
2018-11-14T01:10:53.561Z,9.92
2018-11-14T01:11:53.534Z,9.95
2018-11-14T01:12:53.516Z,9.86
2018-11-14T01:13:53.468Z,9.91
2018-11-14T01:14:53.440Z,9.92
2018-11-14T01:15:53.409Z,9.92
2018-11-14T01:16:53.380Z,9.88
2018-11-14T01:17:53.351Z,9.93
2018-11-14T01:18:53.326Z,9.92
2018-11-14T01:19:53.318Z,9.96
2018-11-14T01:20:53.263Z,9.98
2018-11-14T01:21:53.234Z,9.89
2018-11-14T01:22:53.204Z,9.92
2018-11-14T01:23:53.177Z,9.89
2018-11-14T01:24:53.145Z,9.80
2018-11-14T01:25:53.116Z,9.85
2018-11-14T01:26:53.099Z,9.83
2018-11-14T01:27:53.055Z,9.81
2018-11-14T01:28:53.048Z,9.78
2018-11-14T01:29:52.998Z,9.77
2018-11-14T01:30:52.970Z,9.71
2018-11-14T01:31:52.943Z,9.80
2018-11-14T01:32:52.910Z,9.78
2018-11-14T01:33:52.897Z,9.81
2018-11-14T01:34:52.850Z,9.83
2018-11-14T01:35:52.842Z,9.81
2018-11-14T01:36:52.792Z,9.74
2018-11-14T01:37:52.766Z,9.88
2018-11-14T01:38:52.752Z,9.75
2018-11-14T01:39:52.703Z,9.78
2018-11-14T01:40:52.673Z,9.83
2018-11-14T01:41:52.645Z,9.75
2018-11-14T01:42:52.627Z,9.77
2018-11-14T01:43:52.585Z,9.81
2018-11-14T01:44:52.556Z,9.88
2018-11-14T01:45:52.529Z,9.80
2018-11-14T01:46:52.497Z,9.83
2018-11-14T01:47:52.472Z,9.70
2018-11-14T01:48:52.438Z,9.75
2018-11-14T01:49:52.409Z,9.75
2018-11-14T01:50:52.381Z,9.73
2018-11-14T01:51:52.349Z,9.71
2018-11-14T01:52:52.320Z,9.77
2018-11-14T01:53:52.293Z,9.81
2018-11-14T01:54:52.263Z,9.73
2018-11-14T01:55:52.232Z,9.70
2018-11-14T01:56:52.201Z,9.67
2018-11-14T01:57:52.179Z,9.67
2018-11-14T01:58:52.145Z,9.68
2018-11-14T01:59:52.113Z,9.68
2018-11-14T02:00:52.084Z,9.73
2018-11-14T02:01:52.054Z,9.71
2018-11-14T02:02:52.025Z,9.73
2018-11-14T02:03:51.995Z,9.71
2018-11-14T02:04:51.965Z,9.60
2018-11-14T02:05:51.938Z,9.52
2018-11-14T02:06:51.913Z,9.55
2018-11-14T02:07:51.878Z,9.52
2018-11-14T02:08:51.848Z,9.44
2018-11-14T02:09:51.827Z,9.44
2018-11-14T02:10:51.791Z,9.45
2018-11-14T02:11:51.760Z,9.37
2018-11-14T02:12:51.729Z,9.37
2018-11-14T02:13:51.700Z,9.42
2018-11-14T02:14:51.671Z,9.42
2018-11-14T02:15:51.641Z,9.44
2018-11-14T02:16:51.611Z,9.49
2018-11-14T02:17:51.583Z,9.45
2018-11-14T02:18:51.558Z,9.44
2018-11-14T02:19:51.527Z,9.42
2018-11-14T02:20:51.492Z,9.42
2018-11-14T02:21:51.470Z,9.37
2018-11-14T02:22:51.434Z,9.48
2018-11-14T02:23:51.403Z,9.42
2018-11-14T02:24:51.379Z,9.31
2018-11-14T02:25:51.344Z,9.40
2018-11-14T02:26:51.318Z,9.38
2018-11-14T02:27:51.285Z,9.42
2018-11-14T02:28:51.258Z,9.40
2018-11-14T02:29:51.228Z,9.35
2018-11-14T02:30:51.199Z,9.35
2018-11-14T02:31:51.165Z,9.32
2018-11-14T02:32:51.136Z,9.31
2018-11-14T02:33:51.116Z,9.32
2018-11-14T02:34:51.127Z,9.32
2018-11-14T02:35:51.076Z,9.30
2018-11-14T02:36:51.018Z,9.30
2018-11-14T02:37:50.989Z,9.26
2018-11-14T02:38:50.978Z,9.27
2018-11-14T02:39:50.928Z,9.24
2018-11-14T02:40:50.899Z,9.27
2018-11-14T02:41:50.874Z,9.19
2018-11-14T02:42:50.849Z,9.13
2018-11-14T02:43:50.809Z,9.16
2018-11-14T02:44:50.785Z,9.16
2018-11-14T02:45:50.751Z,9.19
2018-11-14T02:46:50.726Z,9.23
2018-11-14T02:47:50.689Z,9.20
2018-11-14T02:48:50.661Z,9.20
2018-11-14T02:49:50.631Z,9.19
2018-11-14T02:50:50.602Z,9.13
2018-11-14T02:51:50.577Z,9.23
2018-11-14T02:52:50.542Z,9.22
2018-11-14T02:53:50.514Z,9.15
2018-11-14T02:54:50.483Z,9.12
2018-11-14T02:55:50.452Z,9.13
2018-11-14T02:56:50.429Z,9.08
2018-11-14T02:57:50.394Z,9.10
2018-11-14T02:58:50.364Z,9.04
2018-11-14T02:59:50.337Z,9.08
2018-11-14T03:00:50.304Z,9.08
2018-11-14T03:01:50.280Z,9.15
2018-11-14T03:02:50.246Z,9.10
2018-11-14T03:03:50.214Z,9.08
2018-11-14T03:04:50.185Z,9.10
2018-11-14T03:05:50.155Z,9.15
2018-11-14T03:06:50.133Z,9.03
2018-11-14T03:07:50.095Z,9.16
2018-11-14T03:08:50.068Z,9.15
2018-11-14T03:09:50.037Z,9.10
2018-11-14T03:10:50.009Z,9.08
2018-11-14T03:11:49.975Z,9.16
2018-11-14T03:12:49.945Z,9.10
2018-11-14T03:13:49.916Z,9.12
2018-11-14T03:14:49.889Z,9.13
2018-11-14T03:15:49.860Z,9.00
2018-11-14T03:16:49.826Z,8.98
2018-11-14T03:17:49.798Z,8.98
2018-11-14T03:18:49.767Z,8.97
2018-11-14T03:19:49.738Z,9.01
2018-11-14T03:20:49.708Z,9.06
2018-11-14T03:21:49.678Z,9.03
2018-11-14T03:22:49.660Z,9.04
2018-11-14T03:23:49.617Z,8.96
2018-11-14T03:24:49.588Z,9.00
2018-11-14T03:25:49.562Z,8.91
2018-11-14T03:26:49.529Z,9.01
2018-11-14T03:27:49.510Z,9.01
2018-11-14T03:28:49.470Z,8.98
2018-11-14T03:29:49.438Z,8.96
2018-11-14T03:30:49.408Z,9.00
2018-11-14T03:31:49.400Z,9.04
2018-11-14T03:32:49.351Z,9.01
2018-11-14T03:33:49.319Z,8.98
2018-11-14T03:34:49.492Z,9.00
2018-11-14T03:35:49.259Z,8.98
2018-11-14T03:36:49.228Z,8.98
2018-11-14T03:37:49.199Z,9.00
2018-11-14T03:38:49.168Z,8.97
2018-11-14T03:39:49.138Z,9.00
2018-11-14T03:40:49.112Z,9.03
2018-11-14T03:41:49.079Z,9.03
2018-11-14T03:42:49.058Z,8.97
2018-11-14T03:43:49.020Z,8.98
2018-11-14T03:44:48.990Z,9.03
2018-11-14T03:45:48.968Z,9.03
2018-11-14T03:46:48.929Z,9.00
2018-11-14T03:47:48.900Z,8.97
2018-11-14T03:48:48.875Z,8.93
2018-11-14T03:49:48.846Z,8.89
2018-11-14T03:50:48.812Z,8.93
2018-11-14T03:51:48.781Z,8.89
2018-11-14T03:52:48.752Z,8.94
2018-11-14T03:53:48.722Z,8.91
2018-11-14T03:54:48.693Z,8.91
2018-11-14T03:55:48.661Z,8.94
2018-11-14T03:56:48.645Z,8.96
2018-11-14T03:57:48.601Z,8.83
2018-11-14T03:58:48.576Z,8.86
2018-11-14T03:59:48.542Z,8.82
2018-11-14T04:00:48.514Z,8.88
2018-11-14T04:01:48.486Z,8.80
2018-11-14T04:02:48.456Z,8.85
2018-11-14T04:03:48.423Z,8.86
2018-11-14T04:04:48.392Z,8.93
2018-11-14T04:05:48.614Z,8.78
2018-11-14T04:06:48.335Z,8.80
2018-11-14T04:07:48.302Z,8.91
2018-11-14T04:08:48.273Z,8.86
2018-11-14T04:09:48.244Z,8.79
2018-11-14T04:10:48.215Z,8.79
2018-11-14T04:11:48.191Z,8.86
2018-11-14T04:12:48.153Z,8.75
2018-11-14T04:13:48.126Z,8.85
2018-11-14T04:14:48.095Z,8.79
2018-11-14T04:15:48.064Z,8.76
2018-11-14T04:16:48.034Z,8.79
2018-11-14T04:17:48.004Z,8.91
2018-11-14T04:18:47.976Z,8.75
2018-11-14T04:19:47.945Z,8.83
2018-11-14T04:20:47.918Z,8.80
2018-11-14T04:21:47.887Z,8.83
2018-11-14T04:22:47.855Z,8.79
2018-11-14T04:23:47.825Z,8.86
2018-11-14T04:24:47.795Z,8.76
2018-11-14T04:25:47.765Z,8.82
2018-11-14T04:26:47.736Z,8.82
2018-11-14T04:27:47.812Z,8.85
2018-11-14T04:28:47.678Z,8.82
2018-11-14T04:29:47.647Z,8.88
2018-11-14T04:30:47.617Z,8.85
2018-11-14T04:31:47.585Z,8.80
2018-11-14T04:32:47.559Z,8.73
2018-11-14T04:33:47.530Z,8.86
2018-11-14T04:34:47.501Z,8.80
2018-11-14T04:35:47.470Z,8.79
2018-11-14T04:36:47.436Z,8.80
2018-11-14T04:37:47.410Z,8.78
2018-11-14T04:38:47.385Z,8.86
2018-11-14T04:39:47.346Z,8.75
2018-11-14T04:40:47.324Z,8.78
2018-11-14T04:41:47.288Z,8.76
2018-11-14T04:42:47.275Z,8.76
2018-11-14T04:43:47.230Z,8.76
2018-11-14T04:44:47.198Z,8.80
2018-11-14T04:45:47.171Z,8.79
2018-11-14T04:46:47.139Z,8.73
2018-11-14T04:47:47.119Z,8.76
2018-11-14T04:48:47.082Z,8.73
2018-11-14T04:49:47.060Z,8.75
2018-11-14T04:50:47.020Z,8.76
2018-11-14T04:51:46.990Z,8.70
2018-11-14T04:52:46.959Z,8.63
2018-11-14T04:53:46.931Z,8.75
2018-11-14T04:54:46.903Z,8.71
2018-11-14T04:55:46.871Z,8.65
2018-11-14T04:56:46.842Z,8.63
2018-11-14T04:57:46.961Z,8.68
2018-11-14T04:58:46.796Z,8.67
2018-11-14T04:59:46.771Z,8.64
2018-11-14T05:00:46.722Z,8.65
2018-11-14T05:01:46.692Z,8.61
2018-11-14T05:02:46.662Z,8.63
2018-11-14T05:03:46.631Z,8.67
2018-11-14T05:04:46.603Z,8.70
2018-11-14T05:05:46.573Z,8.64
2018-11-14T05:06:46.588Z,8.64
2018-11-14T05:07:46.513Z,8.63
2018-11-14T05:08:46.483Z,8.64
2018-11-14T05:09:46.462Z,8.64
2018-11-14T05:10:46.424Z,8.64
2018-11-14T05:11:46.394Z,8.58
2018-11-14T05:12:46.371Z,8.55
2018-11-14T05:13:46.335Z,8.63
2018-11-14T05:14:46.306Z,8.64
2018-11-14T05:15:46.277Z,8.65
2018-11-14T05:16:46.245Z,8.61
2018-11-14T05:17:46.218Z,8.63
2018-11-14T05:18:46.188Z,8.64
2018-11-14T05:19:46.159Z,8.65
2018-11-14T05:20:46.126Z,8.65
2018-11-14T05:21:46.101Z,8.64
2018-11-14T05:22:46.075Z,8.64
2018-11-14T05:23:46.039Z,8.58
2018-11-14T05:24:46.181Z,8.60
2018-11-14T05:25:45.977Z,8.58
2018-11-14T05:26:45.950Z,8.60
2018-11-14T05:27:45.919Z,8.45
2018-11-14T05:28:45.896Z,8.58
2018-11-14T05:29:45.862Z,8.55
2018-11-14T05:30:45.830Z,8.47
2018-11-14T05:31:45.856Z,8.60
2018-11-14T05:32:45.770Z,8.57
2018-11-14T05:33:45.739Z,8.50
2018-11-14T05:34:45.710Z,8.47
2018-11-14T05:35:45.680Z,8.55
2018-11-14T05:36:45.650Z,8.43
2018-11-14T05:37:45.624Z,8.54
2018-11-14T05:38:45.595Z,8.46
2018-11-14T05:39:45.654Z,8.54
2018-11-14T05:40:45.531Z,8.57
2018-11-14T05:41:45.501Z,8.55
2018-11-14T05:42:45.473Z,8.45
2018-11-14T05:43:45.443Z,8.60
2018-11-14T05:44:45.416Z,8.46
2018-11-14T05:45:45.383Z,8.49
2018-11-14T05:46:45.353Z,8.47
2018-11-14T05:47:45.347Z,8.50
2018-11-14T05:48:45.292Z,8.55
2018-11-14T05:49:45.268Z,8.54
2018-11-14T05:50:46.084Z,8.58
2018-11-14T05:51:45.203Z,8.50
2018-11-14T05:52:45.181Z,8.58
2018-11-14T05:53:45.150Z,8.47
2018-11-14T05:54:45.160Z,8.54
2018-11-14T05:55:45.084Z,8.49
2018-11-14T05:56:45.055Z,8.49
2018-11-14T05:57:45.039Z,8.57
2018-11-14T05:58:44.995Z,8.60
2018-11-14T05:59:44.969Z,8.50
2018-11-14T06:00:44.944Z,8.49
2018-11-14T06:01:44.910Z,8.57
2018-11-14T06:02:44.878Z,8.45
2018-11-14T06:03:44.848Z,8.49
2018-11-14T06:04:44.817Z,8.46
2018-11-14T06:05:44.796Z,8.52
2018-11-14T06:06:44.758Z,8.50
2018-11-14T06:07:44.729Z,8.50
2018-11-14T06:08:44.698Z,8.58
2018-11-14T06:09:44.667Z,8.55
2018-11-14T06:10:44.641Z,8.55
2018-11-14T06:11:44.609Z,8.46
2018-11-14T06:12:44.582Z,8.57
2018-11-14T06:13:44.550Z,8.49
2018-11-14T06:14:44.520Z,8.47
2018-11-14T06:15:44.489Z,8.45
2018-11-14T06:16:44.460Z,8.42
2018-11-14T06:17:44.429Z,8.45
2018-11-14T06:18:44.405Z,8.42
2018-11-14T06:19:44.371Z,8.45
2018-11-14T06:20:44.341Z,8.45
2018-11-14T06:21:44.369Z,8.45
2018-11-14T06:22:44.290Z,8.49
2018-11-14T06:23:44.267Z,8.46
2018-11-14T06:24:44.223Z,8.50
2018-11-14T06:25:44.195Z,8.54
2018-11-14T06:26:44.165Z,8.55
2018-11-14T06:27:44.134Z,8.60
2018-11-14T06:28:44.104Z,8.58
2018-11-14T06:29:44.113Z,8.63
2018-11-14T06:30:44.045Z,8.60
2018-11-14T06:31:44.015Z,8.57
2018-11-14T06:32:43.985Z,8.55
2018-11-14T06:33:43.955Z,8.47
2018-11-14T06:34:43.927Z,8.49
2018-11-14T06:35:43.896Z,8.57
2018-11-14T06:36:43.878Z,8.61
2018-11-14T06:37:43.837Z,8.57
2018-11-14T06:38:43.809Z,8.57
2018-11-14T06:39:43.777Z,8.60
2018-11-14T06:40:43.754Z,8.55
2018-11-14T06:41:43.759Z,8.46
2018-11-14T06:42:43.690Z,8.45
2018-11-14T06:43:43.663Z,8.54
2018-11-14T06:44:43.641Z,8.50
2018-11-14T06:45:43.601Z,8.45
2018-11-14T06:46:43.569Z,8.49
2018-11-14T06:47:43.540Z,8.50
2018-11-14T06:48:43.519Z,8.54
2018-11-14T06:49:43.483Z,8.49
2018-11-14T06:50:43.452Z,8.43
2018-11-14T06:51:43.436Z,8.39
2018-11-14T06:52:43.396Z,8.42
2018-11-14T06:53:43.367Z,8.36
2018-11-14T06:54:43.333Z,8.42
2018-11-14T06:55:43.307Z,8.42
2018-11-14T06:56:43.273Z,8.55
2018-11-14T06:57:43.243Z,8.39
2018-11-14T06:58:43.289Z,8.34
2018-11-14T06:59:43.286Z,8.36
2018-11-14T07:00:43.165Z,8.37
2018-11-14T07:01:43.128Z,8.43
2018-11-14T07:02:43.100Z,8.55
2018-11-14T07:03:43.064Z,8.50
2018-11-14T07:04:43.035Z,8.47
2018-11-14T07:05:43.166Z,8.49
2018-11-14T07:06:42.975Z,8.49
2018-11-14T07:07:42.945Z,8.42
2018-11-14T07:08:42.916Z,8.46
2018-11-14T07:09:42.889Z,8.45
2018-11-14T07:10:42.856Z,8.52
2018-11-14T07:11:42.825Z,8.47
2018-11-14T07:14:42.739Z,8.57
2018-11-14T07:15:42.729Z,8.54
2018-11-14T07:16:42.678Z,8.52
2018-11-14T07:17:42.652Z,8.45
2018-11-14T07:18:42.622Z,8.49
2018-11-14T07:19:42.590Z,8.45
2018-11-14T07:20:42.563Z,8.49
2018-11-14T07:21:42.531Z,8.50
2018-11-14T07:22:42.502Z,8.55
2018-11-14T07:23:42.503Z,8.45
2018-11-14T07:24:42.496Z,8.49
2018-11-14T07:25:42.414Z,8.47
2018-11-14T07:26:42.383Z,8.47
2018-11-14T07:27:42.353Z,8.52
2018-11-14T07:28:42.325Z,8.50
2018-11-14T07:29:42.296Z,8.54
2018-11-14T07:30:42.265Z,8.55
2018-11-14T07:31:42.241Z,8.55
2018-11-14T07:32:42.207Z,8.65
2018-11-14T07:33:42.176Z,8.58
2018-11-14T07:34:42.148Z,8.58
2018-11-14T07:35:42.118Z,8.64
2018-11-14T07:36:42.096Z,8.64
2018-11-14T07:37:42.062Z,8.58
2018-11-14T07:38:42.030Z,8.60
2018-11-14T07:39:42.003Z,8.65
2018-11-14T07:40:41.974Z,8.65
2018-11-14T07:41:41.942Z,8.70
2018-11-14T07:42:41.913Z,8.64
2018-11-14T07:43:42.018Z,8.61
2018-11-14T07:44:41.859Z,8.58
2018-11-14T07:45:41.825Z,8.63
2018-11-14T07:46:41.799Z,8.63
2018-11-14T07:47:41.772Z,8.63
2018-11-14T07:48:41.736Z,8.63
2018-11-14T07:49:41.711Z,8.65
2018-11-14T07:50:41.680Z,8.65
2018-11-14T07:51:41.648Z,8.55
2018-11-14T07:52:41.620Z,8.57
2018-11-14T07:53:41.591Z,8.63
2018-11-14T07:54:41.630Z,8.61
2018-11-14T07:55:41.532Z,8.58
2018-11-14T07:56:41.503Z,8.70
2018-11-14T07:57:41.473Z,8.58
2018-11-14T07:58:41.450Z,8.63
2018-11-14T07:59:41.414Z,8.65
2018-11-14T08:00:41.393Z,8.63
2018-11-14T08:01:41.356Z,8.70
2018-11-14T08:02:41.328Z,8.68
2018-11-14T08:03:41.297Z,8.58
2018-11-14T08:04:41.268Z,8.61
2018-11-14T08:05:41.238Z,8.64
2018-11-14T08:06:41.212Z,8.75
2018-11-14T08:07:41.198Z,8.67
2018-11-14T08:08:41.155Z,8.58
2018-11-14T08:09:41.129Z,8.64
2018-11-14T08:10:41.096Z,8.75
2018-11-14T08:11:41.065Z,8.64
2018-11-14T08:12:41.033Z,8.60
2018-11-14T08:13:41.005Z,8.70
2018-11-14T08:14:40.976Z,8.70
2018-11-14T08:15:40.949Z,8.79
2018-11-14T08:16:40.917Z,8.78
2018-11-14T08:17:40.889Z,8.70
2018-11-14T08:18:40.945Z,8.75
2018-11-14T08:19:40.830Z,8.78
2018-11-14T08:20:40.800Z,8.70
2018-11-14T08:21:40.771Z,8.73
2018-11-14T08:22:40.741Z,8.75
2018-11-14T08:23:40.712Z,8.73
2018-11-14T08:24:40.684Z,8.78
2018-11-14T08:25:40.657Z,8.75
2018-11-14T08:26:40.626Z,8.79
2018-11-14T08:27:40.596Z,8.58
2018-11-14T08:28:40.580Z,8.75
2018-11-14T08:29:40.542Z,8.71
2018-11-14T08:30:40.638Z,8.75
2018-11-14T08:31:40.484Z,8.67
2018-11-14T08:32:40.450Z,8.78
2018-11-14T08:33:40.426Z,8.71
2018-11-14T08:34:40.395Z,8.79
2018-11-14T08:35:40.363Z,8.78
2018-11-14T08:36:40.333Z,8.76
2018-11-14T08:37:40.303Z,8.78
2018-11-14T08:38:40.295Z,8.80
2018-11-14T08:39:40.244Z,8.80
2018-11-14T08:40:40.216Z,8.89
2018-11-14T08:41:40.187Z,8.83
2018-11-14T08:42:40.160Z,8.89
2018-11-14T08:43:40.127Z,8.86
2018-11-14T08:44:40.101Z,8.94
2018-11-14T08:45:40.069Z,8.85
2018-11-14T08:46:40.040Z,8.83
2018-11-14T08:47:40.021Z,8.80
2018-11-14T08:48:39.993Z,8.86
2018-11-14T08:49:39.950Z,8.94
2018-11-14T08:50:39.922Z,8.96
2018-11-14T08:51:39.897Z,9.00
2018-11-14T08:52:39.863Z,9.01
2018-11-14T08:53:39.835Z,9.03
2018-11-14T08:54:39.807Z,9.04
2018-11-14T08:55:39.781Z,9.01
2018-11-14T08:56:39.749Z,9.04
2018-11-14T08:57:39.718Z,9.06
2018-11-14T08:58:39.690Z,9.13
2018-11-14T08:59:39.664Z,9.12
2018-11-14T09:00:39.634Z,9.15
2018-11-14T09:01:39.614Z,9.12
2018-11-14T09:02:39.575Z,9.08
2018-11-14T09:03:39.544Z,9.12
2018-11-14T09:04:39.514Z,9.12
2018-11-14T09:05:39.487Z,9.20
2018-11-14T09:06:39.465Z,9.20
2018-11-14T09:07:39.445Z,9.22
2018-11-14T09:08:39.399Z,9.12
2018-11-14T09:09:39.379Z,9.16
2018-11-14T09:10:39.342Z,9.22
2018-11-14T09:11:39.312Z,9.27
2018-11-14T09:12:39.368Z,9.34
2018-11-14T09:13:39.255Z,9.30
2018-11-14T09:14:39.263Z,9.26
2018-11-14T09:15:39.199Z,9.34
2018-11-14T09:16:39.170Z,9.35
2018-11-14T09:17:39.143Z,9.35
2018-11-14T09:18:39.198Z,9.35
2018-11-14T09:19:39.132Z,9.37
2018-11-14T09:20:39.058Z,9.32
2018-11-14T09:21:39.032Z,9.38
2018-11-14T09:22:38.996Z,9.41
2018-11-14T09:23:39.022Z,9.40
2018-11-14T09:24:38.949Z,9.35
2018-11-14T09:25:38.917Z,9.44
2018-11-14T09:26:38.882Z,9.37
2018-11-14T09:27:38.856Z,9.44
2018-11-14T09:28:38.829Z,9.41
2018-11-14T09:29:38.796Z,9.41
2018-11-14T09:30:38.770Z,9.41
2018-11-14T09:31:38.739Z,9.38
2018-11-14T09:32:38.710Z,9.41
2018-11-14T09:33:38.691Z,9.38
2018-11-14T09:34:38.696Z,9.44
2018-11-14T09:35:38.625Z,9.38
2018-11-14T09:36:38.598Z,9.48
2018-11-14T09:37:38.573Z,9.44
2018-11-14T09:38:38.551Z,9.48
2018-11-14T09:39:38.512Z,9.53
2018-11-14T09:40:38.553Z,9.68
2018-11-14T09:41:38.455Z,9.74
2018-11-14T09:42:38.433Z,9.80
2018-11-14T09:43:38.397Z,9.81
2018-11-14T09:44:38.451Z,9.91
2018-11-14T09:45:38.557Z,9.93
2018-11-14T09:46:38.315Z,9.98
2018-11-14T09:47:38.286Z,9.88
2018-11-14T09:48:38.316Z,9.70
2018-11-14T09:49:38.233Z,9.74
2018-11-14T09:50:38.205Z,9.68
2018-11-14T09:51:38.174Z,9.73
2018-11-14T09:52:38.147Z,9.70
2018-11-14T09:53:38.128Z,9.71
2018-11-14T09:54:38.093Z,9.74
2018-11-14T09:55:38.064Z,9.68
2018-11-14T09:56:38.073Z,9.65
2018-11-14T09:57:38.011Z,9.70
2018-11-14T09:58:38.043Z,9.68
2018-11-14T09:59:37.951Z,9.70
2018-11-14T10:00:37.934Z,9.67
2018-11-14T10:01:37.896Z,9.71
2018-11-14T10:02:37.888Z,9.65
2018-11-14T10:03:37.927Z,9.71
2018-11-14T10:04:37.811Z,9.67
2018-11-14T10:05:37.872Z,9.68
2018-11-14T10:06:37.756Z,9.65
2018-11-14T10:07:37.737Z,9.70
2018-11-14T10:08:37.700Z,9.59
2018-11-14T10:09:37.679Z,9.60
2018-11-14T10:10:37.643Z,9.65
2018-11-14T10:11:37.617Z,9.71
2018-11-14T10:12:37.589Z,9.71
2018-11-14T10:13:37.560Z,9.83
2018-11-14T10:14:37.533Z,9.91
2018-11-14T10:15:37.585Z,9.95
2018-11-14T10:16:37.475Z,10.01
2018-11-14T10:17:37.448Z,10.02
2018-11-14T10:18:37.425Z,10.20
2018-11-14T10:19:37.393Z,10.17
2018-11-14T10:20:37.366Z,10.13
2018-11-14T10:21:37.364Z,10.28
2018-11-14T10:22:37.311Z,10.42
2018-11-14T10:23:37.278Z,10.46
2018-11-14T10:24:37.253Z,10.54
2018-11-14T10:25:37.229Z,10.70
2018-11-14T10:26:37.198Z,10.54
2018-11-14T10:27:37.168Z,10.49
2018-11-14T10:28:37.144Z,10.63
2018-11-14T10:29:37.112Z,10.66
2018-11-14T10:30:37.088Z,10.65
2018-11-14T10:31:37.068Z,10.76
2018-11-14T10:32:37.235Z,10.69
2018-11-14T10:33:37.206Z,10.72
2018-11-14T10:34:36.976Z,10.72
2018-11-14T10:35:36.948Z,10.72
2018-11-14T10:36:36.919Z,10.69
2018-11-14T10:37:36.893Z,10.52
2018-11-14T10:38:36.867Z,10.57
2018-11-14T10:39:36.839Z,10.54
2018-11-14T10:40:36.811Z,10.65
2018-11-14T10:41:36.788Z,10.66
2018-11-14T10:42:36.762Z,10.76
2018-11-14T10:43:36.730Z,10.66
2018-11-14T10:44:36.703Z,10.72
2018-11-14T10:45:36.677Z,10.70
2018-11-14T10:46:36.666Z,10.83
2018-11-14T10:47:36.623Z,10.81
2018-11-14T10:48:36.595Z,10.83
2018-11-14T10:49:36.568Z,10.76
2018-11-14T10:50:36.541Z,10.72
2018-11-14T10:51:36.514Z,10.57
2018-11-14T10:52:36.486Z,10.75
2018-11-14T10:53:36.466Z,10.69
2018-11-14T10:54:36.441Z,10.69
2018-11-14T10:55:36.407Z,10.73
2018-11-14T10:56:36.378Z,10.68
2018-11-14T10:57:36.351Z,10.66
2018-11-14T10:58:36.344Z,10.52
2018-11-14T10:59:36.297Z,10.65
2018-11-14T11:00:36.270Z,10.65
2018-11-14T11:01:36.243Z,10.68
2018-11-14T11:02:36.216Z,10.72
2018-11-14T11:03:36.187Z,10.65
2018-11-14T11:04:36.162Z,10.66
2018-11-14T11:05:36.138Z,10.68
2018-11-14T11:06:36.106Z,10.57
2018-11-14T11:07:36.080Z,10.62
2018-11-14T11:08:36.159Z,10.62
2018-11-14T11:09:36.026Z,10.65
2018-11-14T11:10:36.004Z,10.65
2018-11-14T11:11:35.970Z,10.72
2018-11-14T11:12:35.943Z,10.80
2018-11-14T11:13:35.978Z,10.68
2018-11-14T11:14:35.890Z,10.72
2018-11-14T11:15:35.890Z,10.70
2018-11-14T11:16:35.858Z,10.72
2018-11-14T11:17:35.846Z,10.65
2018-11-14T11:18:35.799Z,10.66
2018-11-14T11:19:35.781Z,10.54
2018-11-14T11:20:35.748Z,10.57
2018-11-14T11:21:35.709Z,10.66
2018-11-14T11:22:35.670Z,10.65
2018-11-14T11:23:35.723Z,10.63
2018-11-14T11:24:35.617Z,10.52
2018-11-14T11:25:35.589Z,10.58
2018-11-14T11:26:35.562Z,10.65
2018-11-14T11:27:35.533Z,10.65
2018-11-14T11:28:35.507Z,10.65
2018-11-14T11:29:35.483Z,10.69
2018-11-14T11:30:35.486Z,10.75
2018-11-14T11:31:35.430Z,10.73
2018-11-14T11:32:35.396Z,10.75
2018-11-14T11:33:35.368Z,10.75
2018-11-14T11:34:35.341Z,10.75
2018-11-14T11:35:35.313Z,10.78
2018-11-14T11:36:35.284Z,10.81
2018-11-14T11:37:35.258Z,10.81
2018-11-14T11:38:35.240Z,10.84
2018-11-14T11:39:35.228Z,10.80
2018-11-14T11:40:35.181Z,10.78
2018-11-14T11:41:35.164Z,10.83
2018-11-14T11:42:35.123Z,10.72
2018-11-14T11:43:35.095Z,10.84
2018-11-14T11:44:35.112Z,10.78
2018-11-14T11:45:35.041Z,10.86
2018-11-14T11:46:35.015Z,10.81
2018-11-14T11:47:34.984Z,10.73
2018-11-14T11:48:34.957Z,10.78
2018-11-14T11:49:34.930Z,10.76
2018-11-14T11:50:34.903Z,10.84
2018-11-14T11:51:34.874Z,10.88
2018-11-14T11:52:34.847Z,10.87
2018-11-14T11:53:34.820Z,10.83
2018-11-14T11:54:34.793Z,10.84
2018-11-14T11:55:34.765Z,10.93
2018-11-14T11:56:34.737Z,10.95
2018-11-14T11:57:34.767Z,10.99
2018-11-14T11:58:34.684Z,10.95
2018-11-14T11:59:34.691Z,11.11
2018-11-14T12:00:34.814Z,11.12
2018-11-14T12:01:34.610Z,11.08
2018-11-14T12:02:34.588Z,11.19
2018-11-14T12:03:34.546Z,11.03
2018-11-14T12:04:34.528Z,11.05
2018-11-14T12:05:34.515Z,11.08
2018-11-14T12:06:34.623Z,11.09
2018-11-14T12:07:34.436Z,11.02
2018-11-14T12:08:34.408Z,11.12
2018-11-14T12:09:34.380Z,11.09
2018-11-14T12:10:34.381Z,11.02
2018-11-14T12:11:34.331Z,11.06
2018-11-14T12:12:34.303Z,11.12
2018-11-14T12:13:34.285Z,11.08
2018-11-14T12:14:34.247Z,11.08
2018-11-14T12:15:34.217Z,11.08
2018-11-14T12:16:34.189Z,11.05
2018-11-14T12:17:34.169Z,11.09
2018-11-14T12:18:34.136Z,11.16
2018-11-14T12:19:34.127Z,11.12
2018-11-14T12:20:34.081Z,11.23
2018-11-14T12:21:34.057Z,11.17
2018-11-14T12:22:34.027Z,11.30
2018-11-14T12:23:34.022Z,11.30
2018-11-14T12:24:33.972Z,11.35
2018-11-14T12:25:33.945Z,11.39
2018-11-14T12:26:33.921Z,11.41
2018-11-14T12:27:33.942Z,11.42
2018-11-14T12:28:33.863Z,11.42
2018-11-14T12:29:33.836Z,11.44
2018-11-14T12:30:33.887Z,11.44
2018-11-14T12:31:33.781Z,11.42
2018-11-14T12:32:33.761Z,11.49
2018-11-14T12:33:33.730Z,11.48
2018-11-14T12:34:33.716Z,11.56
2018-11-14T12:35:33.730Z,11.66
2018-11-14T12:36:33.646Z,11.64
2018-11-14T12:37:33.620Z,11.72
2018-11-14T12:38:33.606Z,11.64
2018-11-14T12:39:33.566Z,11.72
2018-11-14T12:40:33.538Z,11.72
2018-11-14T12:41:33.512Z,11.75
2018-11-14T12:42:33.492Z,11.84
2018-11-14T12:43:33.510Z,11.74
2018-11-14T12:44:33.430Z,11.78
2018-11-14T12:45:33.403Z,11.82
2018-11-14T12:46:33.377Z,11.69
2018-11-14T12:47:33.356Z,11.84
2018-11-14T12:48:33.323Z,11.77
2018-11-14T12:49:33.302Z,11.66
2018-11-14T12:50:33.269Z,11.66
2018-11-14T12:51:33.242Z,11.66
2018-11-14T12:52:33.220Z,11.67
2018-11-14T12:53:33.188Z,11.62
2018-11-14T12:54:33.161Z,11.66
2018-11-14T12:55:33.133Z,11.56
2018-11-14T12:56:33.116Z,11.62
2018-11-14T12:57:33.081Z,11.63
2018-11-14T12:58:33.055Z,11.54
2018-11-14T12:59:33.127Z,11.66
2018-11-14T13:00:33.004Z,11.63
2018-11-14T13:01:32.976Z,11.62
2018-11-14T13:02:32.949Z,11.48
2018-11-14T13:03:32.917Z,11.44
2018-11-14T13:04:32.893Z,11.48
2018-11-14T13:05:32.876Z,11.48
2018-11-14T13:06:32.837Z,11.59
2018-11-14T13:07:32.811Z,11.53
2018-11-14T13:08:32.783Z,11.53
2018-11-14T13:09:32.755Z,11.60
2018-11-14T13:10:32.739Z,11.63
2018-11-14T13:11:32.699Z,11.44
2018-11-14T13:12:32.681Z,11.56